createdAt,value
2023-02-25T00:04:00.074Z,61.60
2023-02-25T00:09:01.470Z,61.98
2023-02-25T00:14:03.278Z,62.32
2023-02-25T00:19:04.622Z,62.24
2023-02-25T00:24:15.840Z,61.71
2023-02-25T00:29:18.326Z,61.20
2023-02-25T00:34:21.072Z,62.25
2023-02-25T00:39:24.042Z,61.73
2023-02-25T00:44:25.452Z,61.77
2023-02-25T00:49:32.203Z,61.59
2023-02-25T00:54:34.981Z,61.88
2023-02-25T00:59:36.523Z,60.49
2023-02-25T01:04:37.863Z,60.24
2023-02-25T01:09:39.434Z,60.41
2023-02-25T01:14:40.805Z,59.75
2023-02-25T01:19:42.196Z,59.64
2023-02-25T01:24:43.599Z,60.04
2023-02-25T01:29:45.290Z,60.33
2023-02-25T01:34:46.634Z,60.00
2023-02-25T01:39:47.991Z,59.19
2023-02-25T01:45:20.227Z,60.03
2023-02-25T01:50:26.998Z,59.64
2023-02-25T01:55:28.488Z,61.16
2023-02-25T02:00:32.367Z,60.71
2023-02-25T02:05:46.493Z,60.55
2023-02-25T02:10:47.827Z,59.86
2023-02-25T02:16:10.847Z,58.92
2023-02-25T02:21:29.770Z,59.39
2023-02-25T02:26:49.566Z,58.35
2023-02-25T02:32:10.482Z,58.35
2023-02-25T02:37:30.786Z,57.74
2023-02-25T02:42:43.591Z,57.03
2023-02-25T02:47:54.436Z,57.97
2023-02-25T02:52:59.585Z,57.16
2023-02-25T02:58:06.886Z,57.52
2023-02-25T03:03:14.644Z,57.67
2023-02-25T03:08:23.139Z,56.60
2023-02-25T03:13:24.724Z,57.07
2023-02-25T03:18:37.129Z,56.97
2023-02-25T03:23:42.994Z,56.45
2023-02-25T03:28:46.047Z,55.60
2023-02-25T03:34:10.391Z,56.26
2023-02-25T03:39:21.348Z,56.18
2023-02-25T03:44:28.735Z,56.53
2023-02-25T03:49:40.692Z,56.14
2023-02-25T03:54:42.161Z,56.92
2023-02-25T03:59:43.502Z,57.50
2023-02-25T04:04:44.956Z,57.77
2023-02-25T04:09:46.368Z,57.76
2023-02-25T04:14:47.859Z,58.00
2023-02-25T04:19:49.247Z,57.47
2023-02-25T04:24:50.664Z,57.95
2023-02-25T04:29:52.054Z,59.02
2023-02-25T04:34:53.415Z,58.42
2023-02-25T04:39:54.839Z,58.90
2023-02-25T04:44:56.222Z,59.25
2023-02-25T04:49:57.854Z,59.74
2023-02-25T04:54:59.346Z,59.75
2023-02-25T05:00:00.689Z,60.38
2023-02-25T05:05:02.116Z,60.69
2023-02-25T05:10:04.804Z,61.04
2023-02-25T05:15:08.523Z,60.95
2023-02-25T05:20:12.645Z,60.93
2023-02-25T05:25:14.782Z,61.58
2023-02-25T05:30:16.317Z,61.79
2023-02-25T05:35:18.156Z,61.19
2023-02-25T05:40:19.625Z,61.80
2023-02-25T05:45:21.041Z,62.22
2023-02-25T05:50:22.404Z,62.62
2023-02-25T05:55:24.154Z,62.66
2023-02-25T06:00:25.590Z,62.35
2023-02-25T06:05:26.968Z,63.07
2023-02-25T06:10:28.412Z,63.07
2023-02-25T06:15:29.810Z,63.02
2023-02-25T06:20:31.756Z,62.97
2023-02-25T06:25:33.127Z,63.14
2023-02-25T06:30:34.569Z,63.20
2023-02-25T06:35:36.069Z,63.19
2023-02-25T06:40:38.404Z,63.61
2023-02-25T06:45:39.847Z,63.64
2023-02-25T06:50:41.757Z,63.28
2023-02-25T06:55:43.089Z,62.99
2023-02-25T07:00:44.988Z,62.68
2023-02-25T07:05:46.416Z,62.46
2023-02-25T07:10:47.776Z,62.65
2023-02-25T07:15:49.218Z,62.53
2023-02-25T07:20:50.608Z,63.17
2023-02-25T07:25:51.974Z,62.55
2023-02-25T07:30:53.414Z,62.68
2023-02-25T07:35:55.373Z,62.44
2023-02-25T07:40:56.727Z,63.00
2023-02-25T07:45:58.257Z,62.45
2023-02-25T07:51:18.549Z,62.17
2023-02-25T07:56:21.794Z,61.88
2023-02-25T08:01:29.732Z,62.85
2023-02-25T08:06:31.830Z,61.85
2023-02-25T08:11:33.343Z,62.21
2023-02-25T08:16:34.818Z,62.40
2023-02-25T08:21:37.364Z,62.72
2023-02-25T08:26:38.823Z,61.72
2023-02-25T08:31:40.393Z,61.17
2023-02-25T08:36:41.968Z,61.01
2023-02-25T08:41:44.187Z,60.69
2023-02-25T08:46:46.080Z,60.67
2023-02-25T08:51:50.587Z,60.08
2023-02-25T08:56:52.081Z,59.58
2023-02-25T09:01:54.165Z,59.20
2023-02-25T09:06:58.282Z,58.93
2023-02-25T09:12:00.721Z,58.35
2023-02-25T09:17:02.895Z,58.69
2023-02-25T09:22:08.838Z,57.39
2023-02-25T09:27:10.396Z,57.80
2023-02-25T09:32:18.376Z,56.75
2023-02-25T09:37:19.880Z,55.87
2023-02-25T09:42:24.520Z,54.60
2023-02-25T09:47:37.823Z,54.26
2023-02-25T09:52:46.552Z,54.01
2023-02-25T09:58:13.969Z,52.98
2023-02-25T10:14:20.804Z,53.11
2023-02-25T10:19:42.354Z,52.72
2023-02-25T10:24:48.745Z,52.56
2023-02-25T10:29:58.845Z,52.42
2023-02-25T10:35:11.176Z,52.10
2023-02-25T10:40:18.723Z,52.37
2023-02-25T10:45:23.487Z,52.86
2023-02-25T10:50:39.263Z,52.88
2023-02-25T10:55:51.835Z,54.22
2023-02-25T11:01:16.809Z,54.46
2023-02-25T11:06:23.686Z,54.65
2023-02-25T11:11:38.507Z,54.57
2023-02-25T11:16:42.776Z,55.36
2023-02-25T11:21:44.797Z,59.07
2023-02-25T11:26:49.382Z,62.11
2023-02-25T11:31:55.747Z,62.06
2023-02-25T11:37:35.946Z,62.56
2023-02-25T11:42:37.659Z,63.17
2023-02-25T11:47:39.111Z,62.72
2023-02-25T11:52:46.494Z,64.35
2023-02-25T11:58:15.301Z,63.42
2023-02-25T12:03:39.621Z,63.44
2023-02-25T12:09:25.568Z,62.30
2023-02-25T12:14:59.130Z,60.79
2023-02-25T12:20:06.392Z,60.32
2023-02-25T12:25:49.676Z,59.25
2023-02-25T12:31:23.348Z,58.64
2023-02-25T12:37:00.295Z,58.12
2023-02-25T12:42:21.152Z,57.19
2023-02-25T12:47:22.479Z,57.28
2023-02-25T12:52:47.861Z,55.72
2023-02-25T12:58:19.889Z,53.83
2023-02-25T13:03:34.132Z,53.47
2023-02-25T13:08:41.196Z,53.39
2023-02-25T13:13:57.919Z,53.18
2023-02-25T13:19:36.427Z,52.68
2023-02-25T13:24:44.593Z,53.30
2023-02-25T13:30:05.455Z,52.54
2023-02-25T13:35:32.236Z,52.38
2023-02-25T13:40:48.837Z,51.88
2023-02-25T14:02:22.426Z,53.17
2023-02-25T14:07:29.784Z,54.94
2023-02-25T14:13:09.864Z,57.23
2023-02-25T14:18:21.758Z,57.35
2023-02-25T14:23:53.071Z,57.90
2023-02-25T14:29:11.861Z,58.84
2023-02-25T14:34:46.737Z,58.59
2023-02-25T14:40:05.480Z,58.18
2023-02-25T14:45:29.135Z,57.79
2023-02-25T14:50:40.787Z,58.15
2023-02-25T14:56:19.945Z,57.29
2023-02-25T15:01:55.754Z,56.84
2023-02-25T15:07:28.579Z,55.36
2023-02-25T17:38:07.235Z,44.13
2023-02-25T17:43:24.074Z,43.81
2023-02-25T17:48:29.732Z,44.05
2023-02-25T17:54:15.537Z,43.79
2023-02-25T17:59:36.440Z,44.22
2023-02-25T18:04:41.115Z,44.64
2023-02-25T18:09:42.458Z,44.15
2023-02-25T18:14:46.057Z,44.36
2023-02-25T18:19:48.061Z,44.52
2023-02-25T18:24:58.887Z,45.01
2023-02-25T18:30:19.191Z,44.90
2023-02-25T18:35:21.843Z,44.86
2023-02-25T18:40:27.934Z,45.32
2023-02-25T18:45:31.005Z,45.78
2023-02-25T18:50:33.204Z,46.03
2023-02-25T18:55:34.551Z,46.02
2023-02-25T19:00:36.014Z,46.21
2023-02-25T19:05:37.405Z,46.60
2023-02-25T19:10:38.982Z,46.23
2023-02-25T19:15:40.586Z,45.88
2023-02-25T19:20:43.903Z,46.44
2023-02-25T19:25:47.774Z,46.64
2023-02-25T19:30:49.189Z,46.49
2023-02-25T19:35:50.577Z,46.66
2023-02-25T19:40:51.999Z,46.83
2023-02-25T19:45:54.353Z,47.31
2023-02-25T19:50:55.791Z,47.02
2023-02-25T19:55:57.355Z,47.24
2023-02-25T20:01:07.166Z,47.17
2023-02-25T20:06:13.235Z,47.06
2023-02-25T20:11:14.860Z,47.32
2023-02-25T20:16:16.245Z,47.09
2023-02-25T20:21:18.807Z,47.16
2023-02-25T20:26:22.989Z,47.05
2023-02-25T20:31:26.169Z,47.17
2023-02-25T20:36:38.028Z,47.42
2023-02-25T20:41:42.741Z,47.21
2023-02-25T20:46:44.648Z,47.51
2023-02-25T20:51:47.401Z,47.19
2023-02-25T20:56:49.923Z,47.34
2023-02-25T21:01:51.340Z,47.36
2023-02-25T21:06:52.878Z,47.40
2023-02-25T21:11:54.322Z,47.50
2023-02-25T21:16:56.916Z,47.82
2023-02-25T21:21:58.328Z,47.52
2023-02-25T21:27:01.327Z,47.55
2023-02-25T21:32:02.723Z,47.44
2023-02-25T21:37:04.370Z,47.64
2023-02-25T21:42:05.737Z,47.56
2023-02-25T21:47:07.120Z,47.64
2023-02-25T21:52:08.480Z,47.63
2023-02-25T21:57:09.964Z,47.76
2023-02-25T22:02:11.331Z,48.18
2023-02-25T22:07:12.713Z,48.35
2023-02-25T22:12:14.140Z,48.54
2023-02-25T22:17:15.594Z,48.28
2023-02-25T22:22:16.925Z,48.49
2023-02-25T22:27:18.303Z,48.37
2023-02-25T22:32:20.334Z,48.99
2023-02-25T22:37:21.766Z,49.29
2023-02-25T22:42:23.623Z,49.03
2023-02-25T22:47:25.269Z,49.65
2023-02-25T22:52:26.658Z,49.39
2023-02-25T22:57:28.019Z,49.77
2023-02-25T23:02:29.402Z,49.63
2023-02-25T23:07:30.739Z,50.20
2023-02-25T23:12:32.089Z,50.45
2023-02-25T23:17:33.408Z,49.85
2023-02-25T23:22:35.133Z,50.34
2023-02-25T23:27:37.097Z,50.63
2023-02-25T23:32:40.960Z,50.60
2023-02-25T23:37:42.635Z,50.54
2023-02-25T23:42:44.156Z,50.85
2023-02-25T23:47:45.498Z,49.82
2023-02-25T23:52:46.904Z,49.77
2023-02-25T23:57:48.470Z,50.33
